createdAt,value
2022-10-15T00:00:18.520Z,0.00
2022-10-15T00:01:18.532Z,0.00
2022-10-15T00:02:18.528Z,0.00
2022-10-15T00:03:18.492Z,0.00
2022-10-15T00:04:18.484Z,0.00
2022-10-15T00:05:18.478Z,0.00
2022-10-15T00:06:18.477Z,0.00
2022-10-15T00:07:18.469Z,0.00
2022-10-15T00:08:18.443Z,0.00
2022-10-15T00:09:18.433Z,0.00
2022-10-15T00:10:18.448Z,0.00
2022-10-15T00:11:18.451Z,0.00
2022-10-15T00:12:18.399Z,0.00
2022-10-15T00:13:18.402Z,0.00
2022-10-15T00:14:18.415Z,0.00
2022-10-15T00:15:18.371Z,0.00
2022-10-15T00:16:18.373Z,0.00
2022-10-15T00:17:18.360Z,0.00
2022-10-15T00:18:18.352Z,0.00
2022-10-15T00:19:18.328Z,0.00
2022-10-15T00:20:18.314Z,0.00
2022-10-15T00:21:18.311Z,0.00
2022-10-15T00:22:18.332Z,0.00
2022-10-15T00:23:18.294Z,0.00
2022-10-15T00:24:18.291Z,0.00
2022-10-15T00:25:18.275Z,0.00
2022-10-15T00:26:18.272Z,0.00
2022-10-15T00:27:18.272Z,0.00
2022-10-15T00:28:18.299Z,0.00
2022-10-15T00:29:18.220Z,0.00
2022-10-15T00:30:18.210Z,0.00
2022-10-15T00:31:18.260Z,0.00
2022-10-15T00:32:18.190Z,0.00
2022-10-15T00:33:18.193Z,0.00
2022-10-15T00:34:18.176Z,0.00
2022-10-15T00:35:18.171Z,0.00
2022-10-15T00:36:19.168Z,0.00
2022-10-15T00:37:18.139Z,0.00
2022-10-15T00:38:18.137Z,0.00
2022-10-15T00:39:18.145Z,0.00
2022-10-15T00:40:18.117Z,0.00
2022-10-15T00:41:18.108Z,0.00
2022-10-15T00:42:18.087Z,0.00
2022-10-15T00:43:18.092Z,0.00
2022-10-15T00:44:18.112Z,0.00
2022-10-15T00:45:18.096Z,0.00
2022-10-15T00:46:18.063Z,0.00
2022-10-15T00:47:18.045Z,0.00
2022-10-15T00:48:18.076Z,0.00
2022-10-15T00:49:18.040Z,0.00
2022-10-15T00:50:18.020Z,0.00
2022-10-15T00:51:18.015Z,0.00
2022-10-15T00:52:18.023Z,0.00
2022-10-15T00:53:17.979Z,0.00
2022-10-15T00:54:17.973Z,0.00
2022-10-15T00:55:17.984Z,0.00
2022-10-15T00:56:17.976Z,0.00
2022-10-15T00:57:17.946Z,0.00
2022-10-15T00:58:17.965Z,0.00
2022-10-15T00:59:17.928Z,0.00
2022-10-15T01:00:17.948Z,0.00
2022-10-15T01:01:17.951Z,0.00
2022-10-15T01:02:17.898Z,0.00
2022-10-15T01:03:17.908Z,0.00
2022-10-15T01:04:17.877Z,0.00
2022-10-15T01:05:17.858Z,0.00
2022-10-15T01:06:17.881Z,0.00
2022-10-15T01:07:17.857Z,0.00
2022-10-15T01:08:17.838Z,0.00
2022-10-15T01:09:17.839Z,0.00
2022-10-15T01:10:17.812Z,0.00
2022-10-15T01:11:17.807Z,0.00
2022-10-15T01:12:17.797Z,0.00
2022-10-15T01:13:17.794Z,0.00
2022-10-15T01:14:17.773Z,0.00
2022-10-15T01:15:17.757Z,0.00
2022-10-15T01:16:17.810Z,0.00
2022-10-15T01:17:17.735Z,0.00
2022-10-15T01:18:18.738Z,0.00
2022-10-15T01:19:17.717Z,0.00
2022-10-15T01:20:17.704Z,0.00
2022-10-15T01:21:17.723Z,0.00
2022-10-15T01:22:17.684Z,0.00
2022-10-15T01:23:19.304Z,0.00
2022-10-15T01:24:17.670Z,0.00
2022-10-15T01:26:18.664Z,0.00
2022-10-15T01:27:17.649Z,0.00
2022-10-15T01:28:17.667Z,0.00
2022-10-15T01:29:17.654Z,0.00
2022-10-15T01:30:17.607Z,0.00
2022-10-15T01:31:17.623Z,0.00
2022-10-15T01:32:17.594Z,0.00
2022-10-15T01:33:17.579Z,0.00
2022-10-15T01:35:17.557Z,0.00
2022-10-15T01:36:17.574Z,0.00
2022-10-15T01:37:17.593Z,0.00
2022-10-15T01:38:17.532Z,0.00
2022-10-15T01:39:17.549Z,0.00
2022-10-15T01:40:17.521Z,0.00
2022-10-15T01:41:17.489Z,0.00
2022-10-15T01:42:17.503Z,0.00
2022-10-15T01:43:17.543Z,0.00
2022-10-15T01:44:17.472Z,0.00
2022-10-15T01:45:17.463Z,0.00
2022-10-15T01:46:17.457Z,0.00
2022-10-15T01:47:17.462Z,0.00
2022-10-15T01:48:17.436Z,0.00
2022-10-15T01:49:17.423Z,0.00
2022-10-15T01:50:17.422Z,0.00
2022-10-15T01:51:17.419Z,0.00
2022-10-15T01:52:17.431Z,0.00
2022-10-15T01:53:17.398Z,0.00
2022-10-15T01:54:17.373Z,0.00
2022-10-15T01:55:17.374Z,0.00
2022-10-15T01:56:17.369Z,0.00
2022-10-15T01:57:17.337Z,0.00
2022-10-15T01:58:17.332Z,0.00
2022-10-15T01:59:17.314Z,0.00
2022-10-15T02:00:17.329Z,0.00
2022-10-15T02:01:17.357Z,0.00
2022-10-15T02:02:17.298Z,0.00
2022-10-15T02:03:17.293Z,0.00
2022-10-15T02:04:17.286Z,0.00
2022-10-15T02:05:17.270Z,0.00
2022-10-15T02:06:17.255Z,0.00
2022-10-15T02:07:17.259Z,0.00
2022-10-15T02:08:17.237Z,0.00
2022-10-15T02:09:17.243Z,0.00
2022-10-15T02:10:17.233Z,0.00
2022-10-15T02:11:17.201Z,0.00
2022-10-15T02:12:17.214Z,0.00
2022-10-15T02:13:17.188Z,0.00
2022-10-15T02:14:17.176Z,0.00
2022-10-15T02:15:17.161Z,0.00
2022-10-15T02:16:17.150Z,0.00
2022-10-15T02:17:17.185Z,0.00
2022-10-15T02:18:17.133Z,0.00
2022-10-15T02:19:17.133Z,0.00
2022-10-15T02:20:17.111Z,0.00
2022-10-15T02:21:17.126Z,0.00
2022-10-15T02:22:17.082Z,0.00
2022-10-15T02:23:17.091Z,0.00
2022-10-15T02:24:17.068Z,0.00
2022-10-15T02:25:17.065Z,0.00
2022-10-15T02:26:17.069Z,0.00
2022-10-15T02:27:17.040Z,0.00
2022-10-15T02:28:17.052Z,0.00
2022-10-15T02:30:17.010Z,0.00
2022-10-15T02:31:17.010Z,0.00
2022-10-15T02:32:17.013Z,0.00
2022-10-15T02:33:16.982Z,0.00
2022-10-15T02:34:16.968Z,0.00
2022-10-15T02:35:16.957Z,0.00
2022-10-15T02:36:16.950Z,0.00
2022-10-15T02:37:16.954Z,0.00
2022-10-15T02:38:16.942Z,0.00
2022-10-15T02:39:20.346Z,0.00
2022-10-15T02:40:48.853Z,0.00
2022-10-15T02:41:16.969Z,0.00
2022-10-15T02:42:16.917Z,0.00
2022-10-15T02:43:16.908Z,0.00
2022-10-15T02:44:16.881Z,0.00
2022-10-15T02:45:16.883Z,0.00
2022-10-15T02:46:16.881Z,0.00
2022-10-15T02:47:16.885Z,0.00
2022-10-15T02:48:16.844Z,0.00
2022-10-15T02:49:16.867Z,0.00
2022-10-15T02:50:16.823Z,0.00
2022-10-15T02:51:16.820Z,0.00
2022-10-15T02:52:16.812Z,0.00
2022-10-15T02:53:16.820Z,0.00
2022-10-15T02:54:16.779Z,0.00
2022-10-15T02:55:16.783Z,0.00
2022-10-15T02:56:16.810Z,0.00
2022-10-15T02:57:16.775Z,0.00
2022-10-15T02:58:16.761Z,0.00
2022-10-15T02:59:16.750Z,0.00
2022-10-15T03:00:16.744Z,0.00
2022-10-15T03:01:16.766Z,0.00
2022-10-15T03:02:18.518Z,0.00
2022-10-15T03:03:17.732Z,0.00
2022-10-15T03:04:16.690Z,0.00
2022-10-15T03:05:16.706Z,0.00
2022-10-15T03:06:16.672Z,0.00
2022-10-15T03:07:16.665Z,0.00
2022-10-15T03:08:16.664Z,0.00
2022-10-15T03:09:16.621Z,0.00
2022-10-15T03:10:17.619Z,0.00
2022-10-15T03:11:16.614Z,0.00
2022-10-15T03:12:16.612Z,0.00
2022-10-15T03:13:16.614Z,0.00
2022-10-15T03:14:16.614Z,0.00
2022-10-15T03:15:16.566Z,0.00
2022-10-15T03:16:16.597Z,0.00
2022-10-15T03:17:16.564Z,0.00
2022-10-15T03:18:16.547Z,0.00
2022-10-15T03:19:16.536Z,0.00
2022-10-15T03:20:16.534Z,0.00
2022-10-15T03:21:16.547Z,0.00
2022-10-15T03:22:16.519Z,0.00
2022-10-15T03:23:16.495Z,0.00
2022-10-15T03:24:16.492Z,0.00
2022-10-15T03:25:16.474Z,0.00
2022-10-15T03:26:16.465Z,0.00
2022-10-15T03:27:16.466Z,0.00
2022-10-15T03:28:16.489Z,0.00
2022-10-15T03:29:16.435Z,0.00
2022-10-15T03:30:16.419Z,0.00
2022-10-15T03:31:16.424Z,0.00
2022-10-15T03:32:16.403Z,0.00
2022-10-15T03:33:16.412Z,0.00
2022-10-15T03:34:16.392Z,0.00
2022-10-15T03:35:16.375Z,0.00
2022-10-15T03:36:16.354Z,0.00
2022-10-15T03:37:16.347Z,0.00
2022-10-15T03:38:16.360Z,0.00
2022-10-15T03:39:16.356Z,0.00
2022-10-15T03:40:16.323Z,0.00
2022-10-15T03:41:16.309Z,0.00
2022-10-15T03:42:16.295Z,0.00
2022-10-15T03:43:16.276Z,0.00
2022-10-15T03:44:16.299Z,0.00
2022-10-15T03:45:16.264Z,0.00
2022-10-15T03:46:16.260Z,0.00
2022-10-15T03:47:16.258Z,0.00
2022-10-15T03:48:16.280Z,0.00
2022-10-15T03:49:16.241Z,0.00
2022-10-15T03:50:16.206Z,0.00
2022-10-15T03:51:19.978Z,0.00
2022-10-15T03:52:16.201Z,0.00
2022-10-15T03:53:16.176Z,0.00
2022-10-15T03:54:16.195Z,0.00
2022-10-15T03:55:16.187Z,0.00
2022-10-15T03:56:16.166Z,0.00
2022-10-15T03:57:16.186Z,0.00
2022-10-15T03:58:16.129Z,0.00
2022-10-15T03:59:16.119Z,0.00
2022-10-15T04:00:16.116Z,0.00
2022-10-15T04:01:16.135Z,0.00
2022-10-15T04:02:16.138Z,0.00
2022-10-15T04:03:16.069Z,0.00
2022-10-15T04:04:16.091Z,0.00
2022-10-15T04:05:16.078Z,0.00
2022-10-15T04:06:16.066Z,0.00
2022-10-15T04:07:16.051Z,0.00
2022-10-15T04:08:16.055Z,0.00
2022-10-15T04:09:16.041Z,0.00
2022-10-15T04:10:16.011Z,0.00
2022-10-15T04:11:16.009Z,0.00
2022-10-15T04:12:15.999Z,0.00
2022-10-15T04:13:16.016Z,0.00
2022-10-15T04:14:15.977Z,0.00
2022-10-15T04:15:15.992Z,0.00
2022-10-15T04:16:15.964Z,0.00
2022-10-15T04:17:15.972Z,0.00
2022-10-15T04:18:15.958Z,0.00
2022-10-15T04:19:15.933Z,0.00
2022-10-15T04:20:15.943Z,0.00
2022-10-15T04:21:15.938Z,0.00
2022-10-15T04:22:15.892Z,0.00
2022-10-15T04:23:15.900Z,0.00
2022-10-15T04:24:15.874Z,0.00
2022-10-15T04:25:15.883Z,0.00
2022-10-15T04:26:15.879Z,0.00
2022-10-15T04:28:15.840Z,0.00
2022-10-15T04:29:15.816Z,0.00
2022-10-15T04:30:15.809Z,0.00
2022-10-15T04:31:15.825Z,0.00
2022-10-15T04:32:15.795Z,0.00
2022-10-15T04:33:15.785Z,0.00
2022-10-15T04:34:15.763Z,0.00
2022-10-15T04:35:15.754Z,0.00
2022-10-15T04:37:15.754Z,0.00
2022-10-15T04:38:15.723Z,0.00
2022-10-15T04:39:15.737Z,0.00
2022-10-15T04:40:15.703Z,0.00
2022-10-15T04:41:15.693Z,0.00
2022-10-15T04:42:15.696Z,0.00
2022-10-15T04:43:15.678Z,0.00
2022-10-15T04:44:15.669Z,0.00
2022-10-15T04:45:15.725Z,0.00
2022-10-15T04:46:15.687Z,0.00
2022-10-15T04:47:15.653Z,0.00
2022-10-15T04:48:15.629Z,0.00
2022-10-15T04:49:15.622Z,0.00
2022-10-15T04:50:15.633Z,0.00
2022-10-15T04:51:15.611Z,0.00
2022-10-15T04:52:15.580Z,0.00
2022-10-15T04:53:15.589Z,0.00
2022-10-15T04:54:15.614Z,0.00
2022-10-15T04:55:15.572Z,0.00
2022-10-15T04:56:15.555Z,0.00
2022-10-15T04:57:15.556Z,0.00
2022-10-15T04:58:15.529Z,0.00
2022-10-15T04:59:15.520Z,0.00
2022-10-15T05:00:15.545Z,0.00
2022-10-15T05:01:15.502Z,0.00
2022-10-15T05:02:15.525Z,0.00
2022-10-15T05:03:15.476Z,0.00
2022-10-15T05:04:15.467Z,0.00
2022-10-15T05:05:15.488Z,0.00
2022-10-15T05:06:15.453Z,0.00
2022-10-15T05:07:15.436Z,0.00
2022-10-15T05:08:15.437Z,0.00
2022-10-15T05:09:15.423Z,0.00
2022-10-15T05:10:15.428Z,0.00
2022-10-15T05:11:15.386Z,0.00
2022-10-15T05:12:15.395Z,0.00
2022-10-15T05:13:15.392Z,0.00
2022-10-15T05:14:15.370Z,0.00
2022-10-15T05:15:15.370Z,0.00
2022-10-15T05:16:15.354Z,0.00
2022-10-15T05:17:15.351Z,0.00
2022-10-15T05:18:15.325Z,0.00
2022-10-15T05:19:15.310Z,0.00
2022-10-15T05:20:15.332Z,0.00
2022-10-15T05:21:15.312Z,0.00
2022-10-15T05:22:15.287Z,0.00
2022-10-15T05:23:15.273Z,0.00
2022-10-15T05:24:15.281Z,0.00
2022-10-15T05:25:15.288Z,0.00
2022-10-15T05:26:15.248Z,0.00
2022-10-15T05:27:15.224Z,0.00
2022-10-15T05:28:15.235Z,0.00
2022-10-15T05:29:15.229Z,0.00
2022-10-15T05:30:15.229Z,0.00
2022-10-15T05:31:18.846Z,0.00
2022-10-15T05:32:16.213Z,0.00
2022-10-15T05:33:15.174Z,0.00
2022-10-15T05:34:15.189Z,0.00
2022-10-15T05:35:15.158Z,0.00
2022-10-15T05:36:15.154Z,0.00
2022-10-15T05:37:15.142Z,0.00
2022-10-15T05:38:15.140Z,0.00
2022-10-15T05:39:15.174Z,0.00
2022-10-15T05:40:19.619Z,0.00
2022-10-15T05:41:16.099Z,0.00
2022-10-15T05:42:15.080Z,0.00
2022-10-15T05:43:15.071Z,0.00
2022-10-15T05:44:15.089Z,0.00
2022-10-15T05:45:15.056Z,0.00
2022-10-15T05:46:15.045Z,0.00
2022-10-15T05:47:15.068Z,0.00
2022-10-15T05:48:15.019Z,0.00
2022-10-15T05:49:16.014Z,5.62
2022-10-15T05:50:14.996Z,5.62
2022-10-15T05:51:15.000Z,5.62
2022-10-15T05:52:15.008Z,11.25
2022-10-15T05:53:14.981Z,11.25
2022-10-15T05:54:14.972Z,11.25
2022-10-15T05:55:14.952Z,11.25
2022-10-15T05:56:14.967Z,11.25
2022-10-15T05:57:14.921Z,11.25
2022-10-15T05:58:14.931Z,16.88
2022-10-15T05:59:14.913Z,16.88
2022-10-15T06:00:14.894Z,16.88
2022-10-15T06:01:14.913Z,16.88
2022-10-15T06:02:14.923Z,16.88
2022-10-15T06:03:14.870Z,22.50
2022-10-15T06:04:14.876Z,22.50
2022-10-15T06:05:14.851Z,22.50
2022-10-15T06:06:14.864Z,22.50
2022-10-15T06:07:14.830Z,22.50
2022-10-15T06:08:14.816Z,22.50
2022-10-15T06:09:14.814Z,22.50
2022-10-15T06:10:14.821Z,22.50
2022-10-15T06:11:14.797Z,22.50
2022-10-15T06:12:14.804Z,28.12
2022-10-15T06:13:14.861Z,28.12
2022-10-15T06:14:14.781Z,28.12
2022-10-15T06:15:14.768Z,28.12
2022-10-15T06:16:16.670Z,22.50
2022-10-15T06:17:14.744Z,28.12
2022-10-15T06:18:14.745Z,28.12
2022-10-15T06:19:14.739Z,28.12
2022-10-15T06:20:14.702Z,28.12
2022-10-15T06:21:14.690Z,28.12
2022-10-15T06:22:14.684Z,28.12
2022-10-15T06:23:14.675Z,28.12
2022-10-15T06:24:14.675Z,33.75
2022-10-15T06:25:14.650Z,28.12
2022-10-15T06:26:14.652Z,28.12
2022-10-15T06:27:14.643Z,28.12
2022-10-15T06:28:14.627Z,28.12
2022-10-15T06:29:14.635Z,28.12
2022-10-15T06:30:14.606Z,28.12
2022-10-15T06:31:14.601Z,28.12
2022-10-15T06:32:14.586Z,28.12
2022-10-15T06:33:14.576Z,33.75
2022-10-15T06:34:14.591Z,33.75
2022-10-15T06:35:14.562Z,33.75
2022-10-15T06:36:14.542Z,39.38
2022-10-15T06:37:14.537Z,39.38
2022-10-15T06:38:14.531Z,45.00
2022-10-15T06:39:14.512Z,45.00
2022-10-15T06:40:14.523Z,45.00
2022-10-15T06:41:14.491Z,50.62
2022-10-15T06:42:14.533Z,56.25
2022-10-15T06:43:14.488Z,50.62
2022-10-15T06:44:14.457Z,45.00
2022-10-15T06:45:16.922Z,39.38
2022-10-15T06:46:15.451Z,45.00
2022-10-15T06:47:14.425Z,45.00
2022-10-15T06:48:14.453Z,50.62
2022-10-15T06:49:14.422Z,50.62
2022-10-15T06:50:14.399Z,50.62
2022-10-15T06:51:14.388Z,56.25
2022-10-15T06:52:14.377Z,61.88
2022-10-15T06:53:14.379Z,67.50
2022-10-15T06:54:14.364Z,73.12
2022-10-15T06:55:14.343Z,78.75
2022-10-15T06:56:14.366Z,95.62
2022-10-15T06:57:14.348Z,106.88
2022-10-15T06:58:14.319Z,112.50
2022-10-15T06:59:14.319Z,90.00
2022-10-15T07:00:14.297Z,95.62
2022-10-15T07:01:14.315Z,101.25
2022-10-15T07:02:14.298Z,101.25
2022-10-15T07:03:14.283Z,90.00
2022-10-15T07:04:14.261Z,78.75
2022-10-15T07:05:14.252Z,84.38
2022-10-15T07:06:14.262Z,90.00
2022-10-15T07:07:14.255Z,95.62
2022-10-15T07:08:18.432Z,101.25
2022-10-15T07:09:14.203Z,95.62
2022-10-15T07:10:14.235Z,95.62
2022-10-15T07:11:14.206Z,84.38
2022-10-15T07:12:14.188Z,84.38
2022-10-15T07:13:14.195Z,84.38
2022-10-15T07:14:14.161Z,78.75
2022-10-15T07:15:14.157Z,61.88
2022-10-15T07:16:14.178Z,67.50
2022-10-15T07:17:14.132Z,78.75
2022-10-15T07:18:14.138Z,112.50
2022-10-15T07:19:14.117Z,106.88
2022-10-15T07:20:14.093Z,95.62
2022-10-15T07:21:14.093Z,101.25
2022-10-15T07:22:14.079Z,101.25
2022-10-15T07:23:14.059Z,112.50
2022-10-15T07:24:14.090Z,123.75
2022-10-15T07:25:14.060Z,112.50
2022-10-15T07:26:14.041Z,123.75
2022-10-15T07:27:20.871Z,112.50
2022-10-15T07:28:16.037Z,95.62
2022-10-15T07:29:14.012Z,61.88
2022-10-15T07:30:14.021Z,50.62
2022-10-15T07:31:13.990Z,39.38
2022-10-15T07:32:14.982Z,39.38
2022-10-15T07:33:13.967Z,45.00
2022-10-15T07:34:13.940Z,56.25
2022-10-15T07:35:13.979Z,56.25
2022-10-15T07:36:13.938Z,56.25
2022-10-15T07:37:13.945Z,61.88
2022-10-15T07:38:13.931Z,73.12
2022-10-15T07:39:13.918Z,84.38
2022-10-15T07:40:13.893Z,106.88
2022-10-15T07:41:13.906Z,112.50
2022-10-15T07:43:13.885Z,135.00
2022-10-15T07:44:13.883Z,118.12
2022-10-15T07:45:13.841Z,106.88
2022-10-15T07:46:13.836Z,118.12
2022-10-15T07:47:13.816Z,123.75
2022-10-15T07:48:13.850Z,129.38
2022-10-15T07:49:13.851Z,140.62
2022-10-15T07:50:13.861Z,174.38
2022-10-15T07:51:13.800Z,185.62
2022-10-15T07:52:13.776Z,191.25
2022-10-15T07:53:13.769Z,163.12
2022-10-15T07:54:13.745Z,185.62
2022-10-15T07:55:13.766Z,180.00
2022-10-15T07:56:13.761Z,140.62
2022-10-15T07:57:13.724Z,135.00
2022-10-15T07:58:13.724Z,146.25
2022-10-15T07:59:13.782Z,135.00
2022-10-15T08:00:13.706Z,151.88
2022-10-15T08:01:13.685Z,191.25
2022-10-15T08:02:13.722Z,168.75
2022-10-15T08:03:13.668Z,151.88
2022-10-15T08:04:13.661Z,140.62
2022-10-15T08:05:13.655Z,146.25
2022-10-15T08:06:13.746Z,157.50
2022-10-15T08:07:17.336Z,146.25
2022-10-15T08:08:13.644Z,129.38
2022-10-15T08:09:13.614Z,123.75
2022-10-15T08:10:13.613Z,112.50
2022-10-15T08:11:13.586Z,123.75
2022-10-15T08:12:13.592Z,118.12
2022-10-15T08:13:13.604Z,129.38
2022-10-15T08:14:13.564Z,146.25
2022-10-15T08:15:13.546Z,123.75
2022-10-15T08:16:13.717Z,112.50
2022-10-15T08:17:13.520Z,112.50
2022-10-15T08:18:13.545Z,118.12
2022-10-15T08:19:13.544Z,106.88
2022-10-15T08:20:13.534Z,112.50
2022-10-15T08:21:13.482Z,112.50
2022-10-15T08:22:13.480Z,106.88
2022-10-15T08:23:13.471Z,90.00
2022-10-15T08:24:13.472Z,73.12
2022-10-15T08:25:13.455Z,67.50
2022-10-15T08:26:13.428Z,90.00
2022-10-15T08:27:13.443Z,151.88
2022-10-15T08:28:13.464Z,191.25
2022-10-15T08:29:13.415Z,219.38
2022-10-15T08:30:13.391Z,247.50
2022-10-15T08:31:13.381Z,247.50
2022-10-15T08:32:13.372Z,253.12
2022-10-15T08:33:13.376Z,258.75
2022-10-15T08:34:13.348Z,247.50
2022-10-15T08:35:13.336Z,253.12
2022-10-15T08:36:13.356Z,258.75
2022-10-15T08:38:16.129Z,337.50
2022-10-15T08:39:13.305Z,388.12
2022-10-15T08:40:46.231Z,433.12
2022-10-15T08:41:13.534Z,438.75
2022-10-15T08:42:13.268Z,399.38
2022-10-15T08:43:13.251Z,371.25
2022-10-15T08:44:13.265Z,360.00
2022-10-15T08:45:13.244Z,371.25
2022-10-15T08:46:13.243Z,382.50
2022-10-15T08:47:13.249Z,495.00
2022-10-15T08:48:13.211Z,618.75
2022-10-15T08:49:13.212Z,506.25
2022-10-15T08:50:13.196Z,472.50
2022-10-15T08:51:13.198Z,427.50
2022-10-15T08:52:13.206Z,421.88
2022-10-15T08:53:13.176Z,405.00
2022-10-15T08:54:13.148Z,354.38
2022-10-15T08:55:13.184Z,315.00
2022-10-15T08:56:13.150Z,286.88
2022-10-15T08:57:13.123Z,253.12
2022-10-15T08:58:13.115Z,236.25
2022-10-15T08:59:13.116Z,253.12
2022-10-15T09:00:13.100Z,258.75
2022-10-15T09:01:13.091Z,275.62
2022-10-15T09:02:13.083Z,303.75
2022-10-15T09:03:13.090Z,326.25
2022-10-15T09:04:13.075Z,360.00
2022-10-15T09:05:13.049Z,703.12
2022-10-15T09:06:13.044Z,478.12
2022-10-15T09:07:13.032Z,478.12
2022-10-15T09:08:13.015Z,427.50
2022-10-15T09:09:13.042Z,382.50
2022-10-15T09:10:13.000Z,337.50
2022-10-15T09:11:12.987Z,326.25
2022-10-15T09:12:12.978Z,371.25
2022-10-15T09:13:16.401Z,376.88
2022-10-15T09:14:12.970Z,371.25
2022-10-15T09:15:12.947Z,360.00
2022-10-15T09:16:12.983Z,365.62
2022-10-15T09:17:12.931Z,348.75
2022-10-15T09:18:12.933Z,382.50
2022-10-15T09:19:12.918Z,421.88
2022-10-15T09:20:12.915Z,450.00
2022-10-15T09:21:12.902Z,450.00
2022-10-15T09:22:12.877Z,483.75
2022-10-15T09:23:12.893Z,742.50
2022-10-15T09:24:12.863Z,624.38
2022-10-15T09:25:12.853Z,646.88
2022-10-15T09:26:12.836Z,613.12
2022-10-15T09:27:12.853Z,545.62
2022-10-15T09:28:12.827Z,472.50
2022-10-15T09:29:12.839Z,455.62
2022-10-15T09:30:12.800Z,421.88
2022-10-15T09:31:12.785Z,382.50
2022-10-15T09:32:12.790Z,354.38
2022-10-15T09:33:12.776Z,343.12
2022-10-15T09:34:12.786Z,337.50
2022-10-15T09:35:12.758Z,326.25
2022-10-15T09:36:12.732Z,320.62
2022-10-15T09:37:12.730Z,281.25
2022-10-15T09:38:12.721Z,264.38
2022-10-15T09:39:12.706Z,247.50
2022-10-15T09:40:12.725Z,208.12
2022-10-15T09:41:12.753Z,213.75
2022-10-15T09:42:12.680Z,241.88
2022-10-15T09:43:12.682Z,286.88
2022-10-15T09:44:12.672Z,309.38
2022-10-15T09:45:12.677Z,281.25
2022-10-15T09:46:12.647Z,281.25
2022-10-15T09:47:12.661Z,281.25
2022-10-15T09:48:12.648Z,281.25
2022-10-15T09:49:12.613Z,309.38
2022-10-15T09:50:12.644Z,348.75
2022-10-15T09:51:12.600Z,354.38
2022-10-15T09:52:12.594Z,354.38
2022-10-15T09:53:12.606Z,320.62
2022-10-15T09:54:12.572Z,292.50
2022-10-15T09:55:12.560Z,281.25
2022-10-15T09:56:12.571Z,275.62
2022-10-15T09:57:12.552Z,315.00
2022-10-15T09:58:12.567Z,331.88
2022-10-15T09:59:12.536Z,343.12
2022-10-15T10:00:12.518Z,365.62
2022-10-15T10:01:12.505Z,388.12
2022-10-15T10:02:12.520Z,410.62
2022-10-15T10:03:12.482Z,416.25
2022-10-15T10:04:12.501Z,416.25
2022-10-15T10:05:12.466Z,399.38
2022-10-15T10:06:12.475Z,416.25
2022-10-15T10:07:12.453Z,466.88
2022-10-15T10:08:12.421Z,500.62
2022-10-15T10:09:12.457Z,556.88
2022-10-15T10:10:12.436Z,675.00
2022-10-15T10:11:12.401Z,928.12
2022-10-15T10:12:12.385Z,950.62
2022-10-15T10:13:12.393Z,978.75
2022-10-15T10:14:12.376Z,928.12
2022-10-15T10:15:12.386Z,691.88
2022-10-15T10:16:12.364Z,540.00
2022-10-15T10:17:12.341Z,511.88
2022-10-15T10:18:12.331Z,528.75
2022-10-15T10:19:12.319Z,590.62
2022-10-15T10:20:12.354Z,540.00
2022-10-15T10:21:12.301Z,545.62
2022-10-15T10:22:12.316Z,534.38
2022-10-15T10:23:12.285Z,528.75
2022-10-15T10:24:12.275Z,523.12
2022-10-15T10:25:12.293Z,500.62
2022-10-15T10:26:12.276Z,495.00
2022-10-15T10:27:12.240Z,478.12
2022-10-15T10:28:12.241Z,461.25
2022-10-15T10:29:22.299Z,483.75
2022-10-15T10:30:13.218Z,511.88
2022-10-15T10:31:12.220Z,708.75
2022-10-15T10:32:12.199Z,770.62
2022-10-15T10:33:12.204Z,736.88
2022-10-15T10:34:12.196Z,736.88
2022-10-15T10:35:12.193Z,753.75
2022-10-15T10:36:12.160Z,675.00
2022-10-15T10:37:12.173Z,765.00
2022-10-15T10:38:12.135Z,703.12
2022-10-15T10:39:12.127Z,731.25
2022-10-15T10:40:12.134Z,624.38
2022-10-15T10:41:12.141Z,652.50
2022-10-15T10:42:12.103Z,742.50
2022-10-15T10:43:12.133Z,697.50
2022-10-15T10:44:12.084Z,601.88
2022-10-15T10:45:14.041Z,652.50
2022-10-15T10:46:13.075Z,663.75
2022-10-15T10:47:12.069Z,641.25
2022-10-15T10:48:12.076Z,669.38
2022-10-15T10:49:12.064Z,635.62
2022-10-15T10:50:12.028Z,720.00
2022-10-15T10:51:13.043Z,596.25
2022-10-15T10:52:12.014Z,489.38
2022-10-15T10:53:11.997Z,517.50
2022-10-15T10:54:11.995Z,495.00
2022-10-15T10:55:11.976Z,596.25
2022-10-15T10:56:11.980Z,675.00
2022-10-15T10:57:11.961Z,556.88
2022-10-15T10:58:11.952Z,551.25
2022-10-15T10:59:12.112Z,568.12
2022-10-15T11:00:11.922Z,585.00
2022-10-15T11:01:11.963Z,596.25
2022-10-15T11:02:11.929Z,601.88
2022-10-15T11:03:11.913Z,573.75
2022-10-15T11:04:14.144Z,545.62
2022-10-15T11:05:12.896Z,562.50
2022-10-15T11:06:11.870Z,613.12
2022-10-15T11:07:11.879Z,624.38
2022-10-15T11:08:11.852Z,630.00
2022-10-15T11:09:11.859Z,556.88
2022-10-15T11:10:11.851Z,506.25
2022-10-15T11:11:11.845Z,495.00
2022-10-15T11:12:11.810Z,500.62
2022-10-15T11:14:11.800Z,517.50
2022-10-15T11:15:11.802Z,523.12
2022-10-15T11:16:11.818Z,545.62
2022-10-15T11:17:11.777Z,613.12
2022-10-15T11:18:11.800Z,630.00
2022-10-15T11:19:19.026Z,579.38
2022-10-15T11:20:29.197Z,511.88
2022-10-15T11:21:13.736Z,489.38
2022-10-15T11:22:11.732Z,455.62
2022-10-15T11:23:11.762Z,478.12
2022-10-15T11:24:11.721Z,489.38
2022-10-15T11:25:11.708Z,466.88
2022-10-15T11:26:11.686Z,466.88
2022-10-15T11:27:11.930Z,483.75
2022-10-15T11:28:11.693Z,495.00
2022-10-15T11:29:11.644Z,506.25
2022-10-15T11:30:11.652Z,483.75
2022-10-15T11:31:11.713Z,433.12
2022-10-15T11:32:15.227Z,365.62
2022-10-15T11:33:13.864Z,315.00
2022-10-15T11:34:11.622Z,315.00
2022-10-15T11:35:16.913Z,337.50
2022-10-15T11:36:12.592Z,303.75
2022-10-15T11:37:11.600Z,275.62
2022-10-15T11:38:11.567Z,275.62
2022-10-15T11:39:11.580Z,292.50
2022-10-15T11:40:11.553Z,286.88
2022-10-15T11:41:11.542Z,264.38
2022-10-15T11:42:11.530Z,292.50
2022-10-15T11:43:11.541Z,309.38
2022-10-15T11:44:11.521Z,331.88
2022-10-15T11:45:11.511Z,315.00
2022-10-15T11:46:11.525Z,286.88
2022-10-15T11:47:11.486Z,270.00
2022-10-15T11:48:11.475Z,264.38
2022-10-15T11:49:11.453Z,247.50
2022-10-15T11:50:11.455Z,219.38
2022-10-15T11:51:11.468Z,196.88
2022-10-15T11:52:11.446Z,191.25
2022-10-15T11:53:11.429Z,196.88
2022-10-15T11:54:11.413Z,202.50
2022-10-15T11:55:11.428Z,202.50
2022-10-15T11:56:11.397Z,219.38
2022-10-15T11:57:11.446Z,208.12
2022-10-15T11:58:11.373Z,208.12
2022-10-15T11:59:11.371Z,230.62
2022-10-15T12:00:11.365Z,253.12
2022-10-15T12:01:11.396Z,247.50
2022-10-15T12:02:11.338Z,219.38
2022-10-15T12:03:11.342Z,196.88
2022-10-15T12:04:11.453Z,191.25
2022-10-15T12:05:11.309Z,185.62
2022-10-15T12:06:11.307Z,180.00
2022-10-15T12:07:11.296Z,196.88
2022-10-15T12:08:11.285Z,196.88
2022-10-15T12:09:11.280Z,191.25
2022-10-15T12:10:11.248Z,180.00
2022-10-15T12:11:11.265Z,180.00
2022-10-15T12:12:11.256Z,180.00
2022-10-15T12:13:11.217Z,185.62
2022-10-15T12:14:11.236Z,202.50
2022-10-15T12:15:11.203Z,202.50
2022-10-15T12:16:11.199Z,191.25
2022-10-15T12:17:11.193Z,163.12
2022-10-15T12:18:11.200Z,151.88
2022-10-15T12:19:11.166Z,146.25
2022-10-15T12:20:12.166Z,151.88
2022-10-15T12:21:11.169Z,146.25
2022-10-15T12:22:11.148Z,151.88
2022-10-15T12:23:11.159Z,157.50
2022-10-15T12:24:11.116Z,146.25
2022-10-15T12:25:11.107Z,135.00
2022-10-15T12:26:11.129Z,129.38
2022-10-15T12:27:11.122Z,140.62
2022-10-15T12:28:11.095Z,140.62
2022-10-15T12:29:11.080Z,118.12
2022-10-15T12:30:11.059Z,106.88
2022-10-15T12:31:11.051Z,112.50
2022-10-15T12:32:11.037Z,118.12
2022-10-15T12:33:11.041Z,123.75
2022-10-15T12:34:12.019Z,129.38
2022-10-15T12:35:12.057Z,123.75
2022-10-15T12:36:11.007Z,123.75
2022-10-15T12:37:11.012Z,129.38
2022-10-15T12:38:10.969Z,135.00
2022-10-15T12:39:17.613Z,118.12
2022-10-15T12:40:13.025Z,129.38
2022-10-15T12:41:10.997Z,129.38
2022-10-15T12:42:10.931Z,112.50
2022-10-15T12:43:10.920Z,112.50
2022-10-15T12:44:10.916Z,118.12
2022-10-15T12:45:10.905Z,112.50
2022-10-15T12:46:10.930Z,112.50
2022-10-15T12:47:10.878Z,106.88
2022-10-15T12:48:10.872Z,106.88
2022-10-15T12:49:10.900Z,106.88
2022-10-15T12:50:10.866Z,95.62
2022-10-15T12:51:10.888Z,101.25
2022-10-15T12:52:10.839Z,106.88
2022-10-15T12:53:10.846Z,106.88
2022-10-15T12:54:10.828Z,112.50
2022-10-15T12:55:10.806Z,118.12
2022-10-15T12:56:10.810Z,118.12
2022-10-15T12:57:10.801Z,123.75
2022-10-15T12:58:10.792Z,123.75
2022-10-15T12:59:10.777Z,118.12
2022-10-15T13:00:10.752Z,118.12
2022-10-15T13:01:11.827Z,112.50